createdAt,value
2023-02-26T00:02:07.946Z,69.05
2023-02-26T00:07:04.839Z,70.71
2023-02-26T00:12:04.754Z,70.47
2023-02-26T00:17:04.819Z,69.40
2023-02-26T00:22:05.793Z,70.57
2023-02-26T00:27:04.539Z,69.29
2023-02-26T00:32:04.678Z,71.44
2023-02-26T00:37:04.408Z,72.76
2023-02-26T00:42:04.475Z,72.86
2023-02-26T00:47:04.279Z,74.80
2023-02-26T00:52:04.249Z,74.46
2023-02-26T00:57:04.119Z,74.70
2023-02-26T01:02:07.123Z,74.91
2023-02-26T01:07:04.183Z,78.28
2023-02-26T01:12:04.011Z,74.70
2023-02-26T01:17:03.900Z,75.71
2023-02-26T01:22:03.890Z,74.91
2023-02-26T01:27:03.856Z,76.92
2023-02-26T01:32:04.104Z,75.95
2023-02-26T01:37:03.639Z,76.89
2023-02-26T01:42:03.606Z,76.68
2023-02-26T01:47:03.569Z,74.98
2023-02-26T01:52:03.465Z,75.88
2023-02-26T01:57:03.525Z,76.40
2023-02-26T02:02:06.360Z,76.12
2023-02-26T02:07:03.390Z,77.58
2023-02-26T02:12:03.223Z,76.89
2023-02-26T02:17:03.142Z,77.31
2023-02-26T02:22:03.585Z,76.75
2023-02-26T02:27:03.027Z,77.62
2023-02-26T02:32:03.249Z,78.07
2023-02-26T02:37:02.934Z,79.77
2023-02-26T02:42:03.463Z,80.26
2023-02-26T02:47:02.794Z,80.02
2023-02-26T02:52:02.845Z,81.34
2023-02-26T02:57:02.717Z,80.88
2023-02-26T03:02:06.570Z,80.36
2023-02-26T03:07:02.566Z,80.19
2023-02-26T03:12:02.484Z,79.49
2023-02-26T03:17:02.481Z,79.32
2023-02-26T03:22:02.522Z,80.40
2023-02-26T03:27:02.255Z,78.11
2023-02-26T03:32:02.500Z,81.23
2023-02-26T03:37:02.141Z,82.42
2023-02-26T03:42:09.223Z,79.01
2023-02-26T03:47:09.598Z,78.38
2023-02-26T03:52:08.939Z,78.42
2023-02-26T03:57:01.908Z,80.96
2023-02-26T04:02:04.919Z,80.23
2023-02-26T04:07:01.742Z,80.96
2023-02-26T04:12:01.727Z,79.84
2023-02-26T04:17:01.696Z,79.46
2023-02-26T04:22:01.613Z,83.08
2023-02-26T04:27:01.596Z,81.20
2023-02-26T04:32:01.486Z,80.65
2023-02-26T04:37:01.383Z,80.23
2023-02-26T04:42:01.327Z,79.28
2023-02-26T04:47:01.207Z,80.89
2023-02-26T04:52:02.267Z,81.52
2023-02-26T04:57:01.102Z,79.74
2023-02-26T05:02:04.121Z,79.74
2023-02-26T05:07:01.006Z,82.07
2023-02-26T05:12:01.012Z,79.46
2023-02-26T05:17:00.830Z,78.66
2023-02-26T05:22:00.835Z,77.58
2023-02-26T05:27:00.736Z,79.33
2023-02-26T05:32:00.718Z,78.52
2023-02-26T05:37:00.576Z,79.43
2023-02-26T05:42:00.582Z,79.39
2023-02-26T05:47:00.530Z,78.56
2023-02-26T05:52:00.525Z,79.50
2023-02-26T05:57:00.609Z,79.50
2023-02-26T06:02:03.485Z,78.14
2023-02-26T06:07:00.296Z,80.47
2023-02-26T06:12:00.330Z,80.16
2023-02-26T06:17:00.129Z,77.83
2023-02-26T06:22:00.112Z,77.93
2023-02-26T06:27:07.071Z,77.45
2023-02-26T06:32:00.281Z,78.34
2023-02-26T06:37:00.083Z,77.34
2023-02-26T06:41:59.793Z,78.83
2023-02-26T06:46:59.820Z,78.49
2023-02-26T06:51:59.748Z,81.48
2023-02-26T06:56:59.652Z,81.79
2023-02-26T07:02:02.772Z,81.76
2023-02-26T07:06:59.492Z,80.92
2023-02-26T07:11:59.648Z,80.16
2023-02-26T07:16:59.364Z,80.36
2023-02-26T07:21:59.296Z,78.83
2023-02-26T07:26:59.269Z,78.38
2023-02-26T07:31:59.487Z,76.72
2023-02-26T07:36:59.072Z,78.59
2023-02-26T07:41:59.202Z,80.12
2023-02-26T07:46:58.926Z,77.40
2023-02-26T07:51:59.256Z,76.20
2023-02-26T07:56:58.870Z,77.83
2023-02-26T08:02:01.930Z,77.06
2023-02-26T08:06:58.922Z,78.80
2023-02-26T08:45:22.672Z,73.63
2023-02-26T08:50:21.413Z,72.76
2023-02-26T08:55:21.375Z,73.00
2023-02-26T09:00:21.340Z,71.86
2023-02-26T09:05:21.351Z,70.82
2023-02-26T09:10:29.663Z,71.20
2023-02-26T09:15:28.074Z,70.27
2023-02-26T09:20:21.086Z,71.14
2023-02-26T09:25:20.986Z,71.07
2023-02-26T09:30:21.274Z,72.28
2023-02-26T09:35:23.959Z,71.38
2023-02-26T09:40:20.797Z,72.31
2023-02-26T09:45:20.732Z,70.37
2023-02-26T09:50:20.626Z,70.97
2023-02-26T09:55:20.709Z,71.34
2023-02-26T10:00:20.526Z,70.31
2023-02-26T10:05:20.636Z,68.10
2023-02-26T10:10:20.637Z,68.78
2023-02-26T10:15:20.356Z,67.27
2023-02-26T10:20:20.468Z,66.91
2023-02-26T10:25:20.302Z,67.34
2023-02-26T10:30:20.150Z,66.00
2023-02-26T10:48:57.120Z,63.10
2023-02-26T10:53:56.669Z,62.02
2023-02-26T10:58:56.583Z,59.75
2023-02-26T11:03:56.176Z,59.36
2023-02-26T11:08:56.317Z,56.34
2023-02-26T11:13:56.249Z,57.48
2023-02-26T11:22:42.559Z,57.50
2023-02-26T11:27:42.696Z,55.72
2023-02-26T11:32:42.628Z,57.40
2023-02-26T11:37:42.340Z,55.41
2023-02-26T11:42:42.482Z,57.29
2023-02-26T11:47:42.340Z,54.79
2023-02-26T11:52:42.117Z,56.47
2023-02-26T11:57:42.322Z,54.27
2023-02-26T12:02:43.376Z,55.56
2023-02-26T12:07:42.090Z,54.68
2023-02-26T12:12:44.848Z,54.19
2023-02-26T12:17:41.971Z,54.38
2023-02-26T12:22:41.932Z,52.72
2023-02-26T12:27:41.643Z,52.54
2023-02-26T12:32:41.696Z,50.70
2023-02-26T12:37:41.728Z,52.25
2023-02-26T12:42:41.486Z,51.45
2023-02-26T12:47:41.399Z,51.71
2023-02-26T12:52:41.356Z,50.64
2023-02-26T12:57:41.412Z,51.01
2023-02-26T13:02:41.258Z,52.56
2023-02-26T13:07:41.165Z,54.45
2023-02-26T13:12:44.308Z,54.84
2023-02-26T13:17:41.040Z,53.38
2023-02-26T13:22:41.050Z,53.36
2023-02-26T13:27:40.858Z,53.56
2023-02-26T13:32:41.224Z,53.28
2023-02-26T13:37:40.839Z,50.41
2023-02-26T13:42:40.728Z,51.94
2023-02-26T13:47:40.653Z,50.10
2023-02-26T13:52:40.630Z,52.53
2023-02-26T13:57:40.477Z,50.02
2023-02-26T14:02:40.506Z,51.16
2023-02-26T14:07:40.382Z,48.86
2023-02-26T14:12:43.334Z,50.85
2023-02-26T14:17:40.224Z,50.93
2023-02-26T14:22:40.256Z,49.52
2023-02-26T14:27:40.163Z,50.39
2023-02-26T14:32:40.111Z,50.89
2023-02-26T14:37:39.966Z,52.98
2023-02-26T14:42:47.710Z,52.62
2023-02-26T14:47:47.396Z,51.17
2023-02-26T14:52:47.177Z,51.81
2023-02-26T14:57:39.713Z,54.68
2023-02-26T15:02:39.703Z,52.95
2023-02-26T15:07:39.553Z,53.20
2023-02-26T15:12:42.603Z,55.66
2023-02-26T15:17:39.539Z,55.58
2023-02-26T15:22:39.457Z,55.17
2023-02-26T15:27:39.340Z,58.18
2023-02-26T15:32:39.457Z,59.53
2023-02-26T15:37:39.202Z,58.70
2023-02-26T15:42:39.319Z,56.86
2023-02-26T15:47:39.056Z,56.96
2023-02-26T15:52:39.041Z,56.57
2023-02-26T15:57:38.975Z,55.10
2023-02-26T16:02:38.914Z,57.37
2023-02-26T16:07:38.804Z,55.74
2023-02-26T16:12:41.770Z,57.38
2023-02-26T16:17:38.672Z,58.94
2023-02-26T16:22:38.652Z,59.04
2023-02-26T16:27:38.529Z,59.25
2023-02-26T16:32:38.750Z,60.31
2023-02-26T16:37:38.405Z,60.24
2023-02-26T16:42:38.434Z,60.99
2023-02-26T16:47:38.389Z,61.71
2023-02-26T16:52:38.338Z,62.16
2023-02-26T16:57:38.140Z,62.99
2023-02-26T17:02:38.138Z,64.03
2023-02-26T17:07:38.016Z,63.20
2023-02-26T17:12:41.052Z,61.64
2023-02-26T17:17:37.936Z,62.16
2023-02-26T17:22:37.840Z,60.55
2023-02-26T17:27:37.748Z,61.27
2023-02-26T17:32:37.870Z,62.31
2023-02-26T17:37:37.653Z,62.62
2023-02-26T17:42:37.933Z,65.35
2023-02-26T17:47:37.541Z,66.21
2023-02-26T17:52:37.586Z,67.46
2023-02-26T17:57:37.386Z,68.07
2023-02-26T18:02:37.370Z,68.52
2023-02-26T18:07:37.451Z,69.59
2023-02-26T18:12:40.212Z,69.25
2023-02-26T18:17:37.147Z,66.27
2023-02-26T18:22:37.104Z,66.11
2023-02-26T18:27:37.018Z,65.59
2023-02-26T18:32:37.042Z,66.11
2023-02-26T18:37:36.889Z,65.93
2023-02-26T18:42:36.995Z,64.92
2023-02-26T18:47:36.863Z,62.87
2023-02-26T18:52:36.851Z,61.49
2023-02-26T18:57:36.662Z,62.19
2023-02-26T19:02:36.656Z,65.86
2023-02-26T19:07:36.557Z,67.38
2023-02-26T19:12:39.481Z,69.28
2023-02-26T19:17:36.501Z,70.14
2023-02-26T19:22:36.385Z,68.92
2023-02-26T19:27:36.289Z,70.13
2023-02-26T19:32:36.515Z,71.94
2023-02-26T19:37:36.140Z,72.25
2023-02-26T19:42:36.119Z,71.84
2023-02-26T19:47:36.110Z,72.36
2023-02-26T19:52:36.138Z,72.25
2023-02-26T19:57:35.924Z,70.41
2023-02-26T20:02:35.969Z,72.01
2023-02-26T20:07:35.791Z,73.30
2023-02-26T20:12:38.823Z,72.77
2023-02-26T20:17:35.682Z,71.62
2023-02-26T20:22:42.901Z,71.17
2023-02-26T20:27:43.153Z,69.88
2023-02-26T20:32:43.122Z,70.78
2023-02-26T20:37:35.439Z,71.86
2023-02-26T20:42:35.336Z,71.76
2023-02-26T20:47:35.280Z,71.55
2023-02-26T20:52:35.205Z,71.03
2023-02-26T20:57:35.261Z,69.01
2023-02-26T21:02:35.126Z,68.41
2023-02-26T21:07:35.116Z,69.36
2023-02-26T21:12:37.994Z,69.21
2023-02-26T21:17:35.034Z,71.79
2023-02-26T21:22:34.945Z,72.56
2023-02-26T21:27:34.941Z,74.48
2023-02-26T21:32:34.927Z,74.41
2023-02-26T21:37:34.647Z,73.99
2023-02-26T21:42:34.758Z,73.78
2023-02-26T21:47:34.518Z,73.57
2023-02-26T21:52:34.533Z,73.99
2023-02-26T21:57:34.412Z,73.99
2023-02-26T22:02:34.424Z,73.04
2023-02-26T22:07:34.352Z,73.60
2023-02-26T22:12:37.341Z,73.92
2023-02-26T22:17:34.156Z,74.58
2023-02-26T22:22:34.264Z,72.66
2023-02-26T22:27:34.127Z,71.30
2023-02-26T22:32:34.141Z,73.00
2023-02-26T22:37:33.903Z,73.81
2023-02-26T22:42:33.866Z,72.86
2023-02-26T22:47:33.785Z,74.09
2023-02-26T22:52:33.823Z,75.04
2023-02-26T22:57:33.632Z,74.16
2023-02-26T23:02:33.613Z,73.22
2023-02-26T23:07:33.702Z,74.19
2023-02-26T23:12:36.589Z,74.86
2023-02-26T23:17:33.411Z,75.10
2023-02-26T23:22:33.375Z,74.44
2023-02-26T23:27:33.284Z,73.91
2023-02-26T23:32:33.288Z,75.38
2023-02-26T23:37:33.142Z,75.49
2023-02-26T23:42:33.128Z,74.40
2023-02-26T23:47:33.036Z,73.53
2023-02-26T23:52:32.990Z,72.76
2023-02-26T23:57:32.910Z,72.90
